Time;durP1;ratioP1;P1;durP2;ratioP2;P2;SDS_P1;SDS_P2;PMS_P1;PMS_P2;Temp;Humidity;BMP_temperature;BMP_pressure;BME280_temperature;BME280_humidity;BME280_pressure;Samples;Min_cycle;Max_cycle;Signal;HPM_P1;HPM_P2
2023/09/13 00:03:40;;;;;;;7.03;3.45;;;;;;;18.18;nan;99570.75;10512880;28;20159;-60
2023/09/13 00:08:42;;;;;;;7.93;3.92;;;;;;;18.29;nan;99578.50;10507428;28;20115;-60
2023/09/13 00:13:44;;;;;;;8.43;3.92;;;;;;;18.47;nan;99584.66;10501409;28;20634;-60
2023/09/13 00:18:47;;;;;;;10.30;4.40;;;;;;;18.65;nan;99598.72;10508057;28;20044;-60
2023/09/13 00:23:49;;;;;;;7.47;4.10;;;;;;;18.78;nan;99595.72;10508112;28;20047;-61
2023/09/13 00:28:51;;;;;;;7.65;3.60;;;;;;;18.95;nan;99587.75;10516348;28;20058;-61
2023/09/13 00:33:53;;;;;;;6.55;3.38;;;;;;;19.03;nan;99594.97;10512274;28;20445;-61
2023/09/13 00:38:56;;;;;;;5.35;2.80;;;;;;;19.05;nan;99583.25;10506177;28;20513;-61
2023/09/13 00:43:59;;;;;;;8.68;3.75;;;;;;;19.18;nan;99590.78;10505906;28;20379;-60
2023/09/13 00:49:03;;;;;;;7.30;4.18;;;;;;;19.14;nan;99600.88;10508131;28;20040;-61
2023/09/13 00:54:06;;;;;;;9.50;3.85;;;;;;;19.05;nan;99595.66;10512391;28;20674;-60
2023/09/13 00:59:09;;;;;;;7.22;3.78;;;;;;;19.00;nan;99596.09;10513290;28;20052;-60
2023/09/13 01:04:11;;;;;;;8.93;4.15;;;;;;;18.97;nan;99600.88;10533077;27;20051;-61
2023/09/13 01:09:14;;;;;;;7.88;3.40;;;;;;;19.04;nan;99597.47;10521496;28;20071;-61
2023/09/13 01:14:18;;;;;;;8.38;3.60;;;;;;;18.91;nan;99612.06;10515141;28;20464;-60
2023/09/13 01:19:58;;;;;;;6.70;3.30;;;;;;;18.97;nan;99606.97;10513957;28;20048;-61
2023/09/13 01:25:21;;;;;;;10.10;3.78;;;;;;;19.10;nan;99618.06;10515441;28;20040;-61
2023/09/13 01:30:28;;;;;;;4.43;2.72;;;;;;;19.11;nan;99618.91;10509122;28;20202;-61
2023/09/13 01:35:30;;;;;;;5.78;2.63;;;;;;;18.94;nan;99623.19;10495915;28;20067;-61
2023/09/13 01:40:39;;;;;;;4.85;2.25;;;;;;;18.69;nan;99626.59;10515979;28;20423;-61
2023/09/13 01:45:41;;;;;;;3.97;2.40;;;;;;;18.57;nan;99628.63;10512192;28;20035;-61
2023/09/13 01:50:44;;;;;;;6.22;2.78;;;;;;;18.60;nan;99620.41;10514207;28;20040;-61
2023/09/13 01:55:46;;;;;;;4.40;2.20;;;;;;;18.67;nan;99641.81;10514141;28;20042;-61
2023/09/13 02:00:48;;;;;;;4.13;2.35;;;;;;;18.77;nan;99637.25;10517911;28;20459;-61
2023/09/13 02:05:50;;;;;;;4.78;1.92;;;;;;;18.83;nan;99634.00;10526117;28;20131;-61
2023/09/13 02:10:52;;;;;;;2.53;1.60;;;;;;;18.89;nan;99638.69;10526609;28;20507;-61
2023/09/13 02:15:54;;;;;;;4.10;1.52;;;;;;;18.81;nan;99638.63;10525192;28;20134;-61
2023/09/13 02:20:56;;;;;;;3.67;1.60;;;;;;;18.67;nan;99631.19;10522416;28;20051;-61
2023/09/13 02:25:58;;;;;;;3.03;1.70;;;;;;;18.80;nan;99629.03;10513489;28;20415;-61
2023/09/13 02:31:03;;;;;;;4.60;2.17;;;;;;;18.87;nan;99635.38;10525969;28;20039;-61
2023/09/13 02:36:05;;;;;;;3.08;1.83;;;;;;;18.76;nan;99630.31;10524170;28;20044;-61
2023/09/13 02:41:07;;;;;;;5.57;1.80;;;;;;;18.69;nan;99639.03;10520243;28;20050;-61
2023/09/13 02:46:09;;;;;;;3.35;1.92;;;;;;;18.49;nan;99639.13;10527479;28;20101;-61
2023/09/13 02:51:13;;;;;;;3.25;1.70;;;;;;;18.51;nan;99646.91;10538904;27;20036;-61
2023/09/13 02:56:15;;;;;;;3.92;1.67;;;;;;;18.43;nan;99642.38;10499120;28;20282;-61
2023/09/13 03:01:17;;;;;;;4.93;2.20;;;;;;;18.41;nan;99654.09;10525210;27;20169;-61
2023/09/13 03:06:19;;;;;;;3.95;1.60;;;;;;;18.46;nan;99646.56;10502051;28;20040;-61
2023/09/13 03:11:22;;;;;;;2.85;1.40;;;;;;;18.42;nan;99646.00;10507690;28;20090;-61
2023/09/13 03:16:24;;;;;;;3.35;1.65;;;;;;;18.50;nan;99650.56;10505768;28;20048;-61
2023/09/13 03:21:27;;;;;;;3.80;1.60;;;;;;;18.51;nan;99636.34;10500269;28;20040;-61
2023/09/13 03:26:31;;;;;;;2.80;1.55;;;;;;;18.54;nan;99634.22;10520988;27;20429;-61
2023/09/13 03:31:35;;;;;;;3.63;1.42;;;;;;;18.57;nan;99641.03;10519110;28;20056;-61
2023/09/13 03:36:43;;;;;;;2.63;1.42;;;;;;;18.68;nan;99632.88;10519655;28;20403;-60
2023/09/13 03:41:45;;;;;;;5.75;1.70;;;;;;;18.81;nan;99638.63;10516590;28;20049;-60
2023/09/13 03:46:47;;;;;;;2.38;1.40;;;;;;;18.87;nan;99647.81;10535781;28;20068;-60
2023/09/13 03:51:50;;;;;;;5.78;1.50;;;;;;;18.77;nan;99637.25;10516289;28;20044;-61
2023/09/13 03:56:52;;;;;;;4.15;1.70;;;;;;;18.64;nan;99639.47;10518904;28;20063;-61
2023/09/13 04:01:54;;;;;;;3.33;1.50;;;;;;;18.65;nan;99636.66;10507728;28;20380;-61
2023/09/13 04:07:00;;;;;;;2.58;1.58;;;;;;;18.69;nan;99639.84;10515901;28;20065;-60
2023/09/13 04:12:03;;;;;;;3.22;1.60;;;;;;;18.70;nan;99627.44;10519149;28;20044;-61
2023/09/13 04:17:05;;;;;;;3.10;1.60;;;;;;;18.61;nan;99635.28;10518235;28;20139;-61
2023/09/13 04:22:08;;;;;;;2.92;1.65;;;;;;;18.61;nan;99637.94;10502646;28;20116;-61
2023/09/13 04:27:10;;;;;;;2.88;1.73;;;;;;;18.67;nan;99643.63;10515831;28;20990;-61
2023/09/13 04:32:12;;;;;;;2.22;1.33;;;;;;;18.71;nan;99653.75;10520275;28;20028;-61
2023/09/13 04:37:15;;;;;;;4.97;1.60;;;;;;;18.65;nan;99646.41;10517942;28;20048;-61
2023/09/13 04:42:18;;;;;;;2.42;1.50;;;;;;;18.59;nan;99652.31;10525143;28;20044;-61
2023/09/13 04:47:20;;;;;;;2.70;1.60;;;;;;;18.50;nan;99658.50;10511104;28;20048;-61
2023/09/13 04:52:22;;;;;;;3.05;1.60;;;;;;;18.50;nan;99666.47;10513989;28;20039;-61
2023/09/13 04:57:24;;;;;;;3.15;1.70;;;;;;;18.64;nan;99666.78;10529401;28;20052;-61
2023/09/13 05:02:26;;;;;;;4.13;1.80;;;;;;;18.63;nan;99666.91;10515120;28;20083;-61
2023/09/13 05:07:29;;;;;;;2.22;1.50;;;;;;;18.55;nan;99675.63;10515996;28;20644;-61
2023/09/13 05:12:31;;;;;;;3.60;1.80;;;;;;;18.55;nan;99672.13;10511117;28;20048;-61
2023/09/13 05:17:33;;;;;;;3.17;1.55;;;;;;;18.46;nan;99684.44;10519445;28;20491;-61
2023/09/13 05:22:35;;;;;;;3.10;1.58;;;;;;;18.51;nan;99690.13;10513697;28;20480;-61
2023/09/13 05:27:37;;;;;;;2.72;1.70;;;;;;;18.53;nan;99704.06;10517260;28;20775;-61
2023/09/13 05:32:39;;;;;;;3.38;1.60;;;;;;;18.54;nan;99699.63;10519292;28;20449;-61
2023/09/13 05:37:41;;;;;;;4.15;1.75;;;;;;;18.59;nan;99702.63;10521428;28;20396;-61
2023/09/13 05:42:43;;;;;;;3.83;1.67;;;;;;;18.48;nan;99711.59;10515885;28;20052;-61
2023/09/13 05:47:47;;;;;;;5.85;1.75;;;;;;;18.58;nan;99712.38;10503800;28;20126;-61
2023/09/13 05:52:49;;;;;;;3.00;1.90;;;;;;;18.62;nan;99718.25;10519082;28;21773;-61
2023/09/13 05:57:52;;;;;;;2.75;1.50;;;;;;;18.62;nan;99719.09;10519074;28;20167;-61
2023/09/13 06:02:54;;;;;;;3.40;1.58;;;;;;;18.67;nan;99722.09;10517117;27;20080;-60
2023/09/13 06:07:56;;;;;;;3.10;1.52;;;;;;;18.83;nan;99726.75;10511198;28;20036;-61
2023/09/13 06:12:58;;;;;;;3.85;1.80;;;;;;;19.39;nan;99719.41;10514731;28;20128;-61
2023/09/13 06:18:00;;;;;;;4.30;2.17;;;;;;;19.76;nan;99727.16;10519176;28;20044;-62
2023/09/13 06:23:03;;;;;;;5.93;2.05;;;;;;;19.81;nan;99727.56;10513198;28;20403;-61
2023/09/13 06:28:05;;;;;;;3.47;1.80;;;;;;;19.87;nan;99745.50;10519158;28;20656;-61
2023/09/13 06:33:08;;;;;;;5.32;2.13;;;;;;;19.94;nan;99735.94;10523166;28;20047;-61
2023/09/13 06:38:14;;;;;;;4.43;1.83;;;;;;;19.84;nan;99745.00;10503110;28;20036;-61
2023/09/13 06:43:18;;;;;;;3.78;2.22;;;;;;;19.97;nan;99745.44;10508611;28;20046;-61
2023/09/13 06:48:33;;;;;;;4.85;2.10;;;;;;;19.96;nan;99744.59;10507435;28;20040;-61
2023/09/13 06:53:35;;;;;;;3.80;1.98;;;;;;;19.66;nan;99762.72;10506453;28;20158;-61
2023/09/13 06:58:38;;;;;;;4.90;2.05;;;;;;;19.57;nan;99766.28;10513352;28;20039;-61
2023/09/13 07:03:43;;;;;;;5.20;2.35;;;;;;;19.60;nan;99771.31;10518145;28;20142;-61
2023/09/13 07:08:51;;;;;;;4.20;2.30;;;;;;;19.83;nan;99783.13;10506245;28;20652;-61
2023/09/13 07:13:53;;;;;;;5.63;2.50;;;;;;;20.08;nan;99785.81;10508928;28;20835;-61
2023/09/13 07:18:55;;;;;;;4.57;2.35;;;;;;;20.33;nan;99783.31;10525937;28;20562;-61
2023/09/13 07:23:58;;;;;;;5.90;2.30;;;;;;;20.41;nan;99793.97;10504973;28;20487;-62
2023/09/13 07:29:01;;;;;;;5.43;2.35;;;;;;;20.55;nan;99788.91;10509674;28;20963;-62
2023/09/13 07:34:03;;;;;;;4.88;2.22;;;;;;;20.77;nan;99799.03;10509587;28;20396;-62
2023/09/13 07:39:06;;;;;;;4.97;2.80;;;;;;;21.02;nan;99797.28;10503527;28;20063;-62
2023/09/13 07:44:09;;;;;;;6.90;3.30;;;;;;;21.24;nan;99809.13;10506224;28;20052;-62
2023/09/13 07:49:11;;;;;;;4.63;2.65;;;;;;;21.42;nan;99809.88;10518290;28;20181;-61
2023/09/13 07:54:13;;;;;;;6.18;3.15;;;;;;;21.48;nan;99817.19;10514526;28;20237;-61
2023/09/13 07:59:17;;;;;;;8.70;3.45;;;;;;;21.15;nan;99823.44;10516967;28;20044;-62
2023/09/13 08:04:19;;;;;;;6.90;2.88;;;;;;;21.42;nan;99837.31;10514183;28;20055;-61
2023/09/13 08:09:21;;;;;;;5.75;3.00;;;;;;;21.52;nan;99831.84;10514782;28;20130;-61
2023/09/13 08:14:23;;;;;;;6.85;3.15;;;;;;;22.16;nan;99847.91;10509632;28;20459;-63
2023/09/13 08:19:25;;;;;;;5.90;2.67;;;;;;;22.16;nan;99850.56;10510764;28;20115;-63
2023/09/13 08:24:27;;;;;;;4.65;2.65;;;;;;;22.11;nan;99852.88;10516607;28;20606;-63
2023/09/13 08:29:29;;;;;;;5.20;3.08;;;;;;;21.86;nan;99864.53;10511797;28;20123;-63
2023/09/13 08:34:33;;;;;;;4.78;2.20;;;;;;;21.78;nan;99875.16;10508145;28;20060;-64
2023/09/13 08:39:35;;;;;;;4.05;2.38;;;;;;;21.71;nan;99879.47;10514613;28;20131;-63
2023/09/13 08:44:38;;;;;;;6.95;2.90;;;;;;;21.82;nan;99885.28;10510372;28;20198;-63
2023/09/13 08:49:42;;;;;;;6.53;2.25;;;;;;;22.17;nan;99892.19;10514619;28;20552;-63
2023/09/13 08:54:47;;;;;;;6.43;2.83;;;;;;;22.16;nan;99906.50;10512017;28;20105;-63
2023/09/13 08:59:59;;;;;;;4.45;2.38;;;;;;;21.93;nan;99924.09;10523560;28;20191;-63
2023/09/13 09:05:07;;;;;;;5.18;2.70;;;;;;;21.64;nan;99926.38;10511488;28;20055;-63
2023/09/13 09:10:12;;;;;;;4.32;2.40;;;;;;;21.92;nan;99933.91;10526406;28;20047;-63
2023/09/13 09:15:17;;;;;;;4.10;2.40;;;;;;;22.30;nan;99927.16;10515285;28;20203;-63
2023/09/13 09:20:19;;;;;;;5.78;2.47;;;;;;;22.15;nan;99926.16;10514109;28;20279;-63
2023/09/13 09:25:24;;;;;;;6.15;2.60;;;;;;;22.13;nan;99930.00;10511126;28;20131;-63
2023/09/13 09:30:31;;;;;;;4.03;2.35;;;;;;;22.81;nan;99917.97;10521723;28;20517;-63
2023/09/13 09:35:36;;;;;;;5.45;2.35;;;;;;;23.19;nan;99914.53;10503553;28;20039;-63
2023/09/13 09:40:39;;;;;;;5.53;2.28;;;;;;;23.78;nan;99904.25;10512416;28;20495;-63
2023/09/13 09:45:41;;;;;;;7.20;2.17;;;;;;;24.38;nan;99898.97;10512066;28;20048;-63
2023/09/13 09:50:46;;;;;;;5.93;2.78;;;;;;;24.40;nan;99902.28;10515168;28;20116;-64
2023/09/13 09:55:49;;;;;;;6.70;2.72;;;;;;;24.31;nan;99906.06;10513112;28;20036;-63
2023/09/13 10:00:53;;;;;;;4.18;2.63;;;;;;;24.00;nan;99912.25;10512447;28;20048;-63
2023/09/13 10:06:12;;;;;;;9.00;2.95;;;;;;;23.71;nan;99913.97;10517465;28;20453;-63
2023/09/13 10:11:15;;;;;;;5.28;2.03;;;;;;;23.73;nan;99925.31;10510236;28;20071;-63
2023/09/13 10:16:18;;;;;;;3.80;2.20;;;;;;;23.55;nan;99928.25;10519263;28;20052;-63
2023/09/13 10:21:28;;;;;;;5.35;2.10;;;;;;;23.57;nan;99928.06;10512744;28;20130;-63
2023/09/13 10:26:31;;;;;;;3.28;1.90;;;;;;;24.10;nan;99928.91;10513345;28;20739;-63
2023/09/13 10:31:41;;;;;;;3.80;1.75;;;;;;;23.96;nan;99936.88;10510117;28;20072;-63
2023/09/13 10:36:48;;;;;;;4.28;1.80;;;;;;;23.96;nan;99926.19;10508487;28;20286;-63
2023/09/13 10:42:10;;;;;;;3.40;1.90;;;;;;;24.33;nan;99941.47;10518763;28;20051;-63
2023/09/13 10:47:14;;;;;;;3.15;1.80;;;;;;;23.97;nan;99928.66;10516683;28;20050;-63
2023/09/13 10:52:17;;;;;;;4.15;1.95;;;;;;;24.02;nan;99931.63;10511792;28;20495;-63
2023/09/13 10:57:20;;;;;;;4.63;1.98;;;;;;;23.96;nan;99932.31;10507648;28;20075;-63
2023/09/13 11:02:23;;;;;;;3.55;1.90;;;;;;;23.60;nan;99944.56;10509660;28;20104;-63
2023/09/13 11:07:25;;;;;;;4.95;1.80;;;;;;;23.49;nan;99944.97;10506427;28;20127;-63
2023/09/13 11:12:27;;;;;;;4.00;2.00;;;;;;;23.37;nan;99938.31;10506552;28;20058;-63
2023/09/13 11:17:38;;;;;;;4.10;1.90;;;;;;;23.23;nan;99939.00;10510218;28;20393;-63
2023/09/13 11:22:41;;;;;;;5.78;1.73;;;;;;;23.74;nan;99942.97;10510855;28;20036;-63
2023/09/13 11:27:43;;;;;;;5.30;1.88;;;;;;;23.97;nan;99934.00;10491577;28;20128;-63
2023/09/13 11:32:46;;;;;;;3.13;1.88;;;;;;;24.22;nan;99942.72;10508850;28;20058;-63
2023/09/13 11:37:49;;;;;;;5.10;1.80;;;;;;;24.41;nan;99950.22;10517037;28;20036;-63
2023/09/13 11:42:52;;;;;;;5.30;1.80;;;;;;;24.44;nan;99957.06;10512591;28;20530;-63
2023/09/13 11:48:07;;;;;;;3.70;2.00;;;;;;;24.19;nan;99959.94;10508248;28;20043;-63
2023/09/13 11:53:18;;;;;;;5.07;2.40;;;;;;;24.05;nan;99959.81;10506280;28;20488;-63
2023/09/13 11:58:30;;;;;;;3.47;1.90;;;;;;;24.18;nan;99960.94;10508754;28;20442;-63
2023/09/13 12:03:52;;;;;;;3.25;1.90;;;;;;;24.49;nan;99960.84;10510242;28;20040;-63
2023/09/13 12:08:57;;;;;;;4.25;1.92;;;;;;;24.81;nan;99963.28;10506506;28;20048;-63
2023/09/13 12:14:03;;;;;;;4.13;1.88;;;;;;;24.83;nan;99971.97;10512225;28;20044;-63
2023/09/13 12:19:13;;;;;;;3.70;2.08;;;;;;;24.84;nan;99975.44;10517257;28;20052;-63
2023/09/13 12:24:24;;;;;;;3.95;1.70;;;;;;;24.74;nan;99967.69;10509371;28;20127;-63
2023/09/13 12:29:27;;;;;;;4.47;1.83;;;;;;;24.83;nan;99958.59;10509561;28;20054;-63
2023/09/13 12:34:29;;;;;;;4.03;1.90;;;;;;;25.37;nan;99953.81;10506172;28;20052;-63
2023/09/13 12:39:31;;;;;;;3.63;2.25;;;;;;;25.36;nan;99954.84;10508234;28;20062;-63
2023/09/13 12:44:35;;;;;;;11.18;2.45;;;;;;;25.00;nan;99953.88;10533706;27;20047;-63
2023/09/13 12:49:38;;;;;;;3.05;1.73;;;;;;;24.90;nan;99951.47;10514512;28;20547;-63
2023/09/13 12:54:42;;;;;;;2.90;1.75;;;;;;;25.01;nan;99950.19;10524016;28;20463;-63
2023/09/13 12:59:45;;;;;;;6.15;1.98;;;;;;;24.96;nan;99956.09;10517885;28;20404;-63
2023/09/13 13:04:47;;;;;;;4.20;1.70;;;;;;;24.81;nan;99949.91;10524070;28;20135;-63
2023/09/13 13:09:53;;;;;;;2.17;1.33;;;;;;;24.90;nan;99956.81;10532721;28;20491;-62
2023/09/13 13:14:55;;;;;;;3.53;1.30;;;;;;;25.46;nan;99952.72;10536158;27;20127;-63
2023/09/13 13:19:57;;;;;;;2.60;1.38;;;;;;;25.59;nan;99954.75;10531863;28;20197;-63
2023/09/13 13:24:59;;;;;;;2.72;1.33;;;;;;;25.64;nan;99950.47;10526278;28;20094;-63
2023/09/13 13:30:01;;;;;;;3.80;1.65;;;;;;;25.66;nan;99959.16;10519997;28;20041;-63
2023/09/13 13:35:04;;;;;;;2.65;1.45;;;;;;;25.53;nan;99961.66;10518408;28;20036;-63
2023/09/13 13:40:07;;;;;;;2.33;1.38;;;;;;;25.60;nan;99967.94;10516826;28;20036;-63
2023/09/13 13:45:11;;;;;;;2.88;1.60;;;;;;;25.26;nan;99965.00;10528430;28;20086;-63
2023/09/13 13:50:13;;;;;;;2.88;1.52;;;;;;;24.88;nan;99972.22;10511560;28;20147;-63
2023/09/13 13:55:16;;;;;;;3.55;1.58;;;;;;;24.69;nan;99955.84;10517191;28;20126;-63
2023/09/13 14:00:18;;;;;;;5.25;1.60;;;;;;;24.71;nan;99964.53;10511021;28;20139;-63
2023/09/13 14:05:20;;;;;;;2.20;1.27;;;;;;;24.70;nan;99960.16;10520331;28;20052;-63
2023/09/13 14:10:22;;;;;;;3.85;1.48;;;;;;;24.59;nan;99958.75;10514498;28;20130;-63
2023/09/13 14:15:24;;;;;;;4.55;1.60;;;;;;;24.63;nan;99962.78;10521017;28;20071;-63
2023/09/13 14:20:26;;;;;;;3.70;1.50;;;;;;;24.60;nan;99965.78;10526962;28;20576;-63
2023/09/13 14:25:28;;;;;;;2.13;1.30;;;;;;;24.46;nan;99965.75;10516326;28;20668;-63
2023/09/13 14:30:32;;;;;;;3.08;1.45;;;;;;;24.43;nan;99966.91;10522302;28;20044;-63
2023/09/13 14:35:35;;;;;;;2.33;1.20;;;;;;;24.37;nan;99974.84;10518525;28;20059;-63
2023/09/13 14:40:37;;;;;;;2.75;1.40;;;;;;;24.25;nan;99969.91;10520509;28;20283;-63
2023/09/13 14:45:39;;;;;;;2.95;1.75;;;;;;;23.95;nan;99977.94;10522321;28;20143;-63
2023/09/13 14:50:41;;;;;;;3.47;1.60;;;;;;;23.36;nan;99974.00;10521051;28;20160;-63
2023/09/13 14:55:45;;;;;;;3.58;1.42;;;;;;;23.16;nan;99978.06;10514155;28;20642;-63
2023/09/13 15:00:47;;;;;;;3.28;1.55;;;;;;;23.17;nan;99987.72;10521051;28;20068;-63
2023/09/13 15:05:49;;;;;;;2.72;1.50;;;;;;;23.06;nan;99985.44;10519330;28;20044;-63
2023/09/13 15:10:51;;;;;;;2.63;1.63;;;;;;;23.11;nan;99981.25;10517568;28;20127;-63
2023/09/13 15:15:53;;;;;;;3.70;1.60;;;;;;;23.20;nan;99990.06;10511030;28;20036;-62
2023/09/13 15:20:55;;;;;;;2.90;1.75;;;;;;;23.14;nan;99986.25;10507823;28;20075;-65
2023/09/13 15:25:58;;;;;;;3.35;1.50;;;;;;;23.20;nan;99998.06;10513783;28;20411;-63
2023/09/13 15:31:00;;;;;;;3.08;1.50;;;;;;;23.00;nan;100004.78;10522570;28;20584;-62
2023/09/13 15:36:03;;;;;;;2.88;1.42;;;;;;;22.86;nan;100010.81;10522526;28;20073;-63
2023/09/13 15:41:05;;;;;;;2.38;1.50;;;;;;;22.69;nan;100016.13;10520477;28;20043;-63
2023/09/13 15:46:11;;;;;;;3.13;1.80;;;;;;;22.53;nan;100031.28;10522233;28;20459;-63
2023/09/13 15:51:13;;;;;;;3.22;1.85;;;;;;;22.54;nan;100041.75;10517289;28;20067;-63
2023/09/13 15:56:16;;;;;;;4.38;1.98;;;;;;;22.54;nan;100038.25;10517515;28;20063;-63
2023/09/13 16:01:19;;;;;;;3.97;1.75;;;;;;;22.49;nan;100037.94;10520575;28;20044;-63
2023/09/13 16:06:21;;;;;;;3.38;1.77;;;;;;;22.36;nan;100050.91;10523148;28;20043;-63
2023/09/13 16:11:23;;;;;;;2.63;1.40;;;;;;;22.34;nan;100048.41;10526037;28;20047;-63
2023/09/13 16:16:26;;;;;;;2.58;1.50;;;;;;;22.18;nan;100058.19;10533114;28;20056;-63
2023/09/13 16:21:28;;;;;;;7.07;1.60;;;;;;;22.16;nan;100065.50;10525894;28;20468;-63
2023/09/13 16:26:30;;;;;;;2.83;1.50;;;;;;;21.84;nan;100060.88;10520953;28;20083;-63
2023/09/13 16:31:32;;;;;;;2.17;1.30;;;;;;;21.63;nan;100071.94;10521101;28;20064;-63
2023/09/13 16:36:34;;;;;;;2.28;1.35;;;;;;;21.65;nan;100082.41;10532529;28;20067;-63
2023/09/13 16:41:37;;;;;;;2.28;1.10;;;;;;;21.65;nan;100087.75;10527223;28;20047;-63
2023/09/13 16:46:40;;;;;;;2.30;1.20;;;;;;;21.59;nan;100091.03;10527239;28;20044;-63
2023/09/13 16:51:42;;;;;;;2.15;1.00;;;;;;;21.49;nan;100099.13;10532620;28;20055;-63
2023/09/13 16:56:44;;;;;;;3.10;1.40;;;;;;;21.45;nan;100104.94;10527700;28;20488;-63
2023/09/13 17:01:46;;;;;;;1.30;1.00;;;;;;;21.51;nan;100102.47;10532392;28;20539;-63
2023/09/13 17:06:49;;;;;;;1.27;1.00;;;;;;;21.25;nan;100095.44;10525946;28;20055;-63
2023/09/13 17:11:54;;;;;;;1.20;0.90;;;;;;;21.07;nan;100109.59;10528491;28;20133;-62
2023/09/13 17:17:00;;;;;;;1.27;1.10;;;;;;;20.86;nan;100125.06;10533766;28;20048;-63
2023/09/13 17:22:02;;;;;;;1.73;1.05;;;;;;;20.83;nan;100135.13;10518362;28;20423;-63
2023/09/13 17:27:04;;;;;;;2.50;1.20;;;;;;;20.65;nan;100147.59;10519993;28;20127;-63
2023/09/13 17:32:11;;;;;;;1.98;1.25;;;;;;;20.54;nan;100148.59;10515669;28;20050;-63
2023/09/13 17:37:13;;;;;;;2.30;1.25;;;;;;;20.44;nan;100157.66;10526567;28;20044;-63
2023/09/13 17:42:16;;;;;;;1.60;1.20;;;;;;;20.33;nan;100166.66;10521750;28;20044;-63
2023/09/13 17:47:22;;;;;;;2.25;1.30;;;;;;;20.16;nan;100180.69;10513882;28;20271;-63
2023/09/13 17:52:25;;;;;;;1.85;1.20;;;;;;;19.98;nan;100185.09;10514072;28;20123;-63
2023/09/13 17:57:27;;;;;;;2.50;1.50;;;;;;;19.85;nan;100198.69;10522560;28;20076;-62
2023/09/13 18:02:31;;;;;;;3.25;1.75;;;;;;;19.60;nan;100201.09;10513466;28;20044;-63
2023/09/13 18:07:36;;;;;;;1.92;1.17;;;;;;;19.46;nan;100208.50;10521649;28;20063;-62
2023/09/13 18:12:41;;;;;;;3.08;1.60;;;;;;;19.34;nan;100220.25;10525950;28;20287;-62
2023/09/13 18:17:43;;;;;;;3.53;1.20;;;;;;;19.20;nan;100233.09;10495022;28;20063;-63
2023/09/13 18:22:55;;;;;;;1.95;1.20;;;;;;;19.05;nan;100237.16;10512245;28;20127;-63
2023/09/13 18:27:58;;;;;;;2.53;1.20;;;;;;;18.85;nan;100243.34;10516293;28;20134;-63
2023/09/13 18:33:00;;;;;;;2.13;1.08;;;;;;;18.57;nan;100252.88;10511812;28;20047;-63
2023/09/13 18:38:03;;;;;;;1.73;1.08;;;;;;;18.54;nan;100259.28;10512120;28;20499;-63
2023/09/13 18:43:05;;;;;;;2.75;1.10;;;;;;;18.45;nan;100259.25;10515912;28;20395;-63
2023/09/13 18:48:07;;;;;;;1.55;1.10;;;;;;;18.26;nan;100264.50;10509697;28;20296;-63
2023/09/13 18:53:10;;;;;;;3.25;1.10;;;;;;;18.23;nan;100275.34;10511174;28;20040;-63
2023/09/13 18:58:13;;;;;;;1.48;1.10;;;;;;;18.22;nan;100286.91;10511869;28;20994;-63
2023/09/13 19:03:16;;;;;;;2.00;1.08;;;;;;;18.12;nan;100293.91;10508947;28;20185;-63
2023/09/13 19:08:18;;;;;;;2.20;1.20;;;;;;;18.16;nan;100308.56;10518282;28;20213;-63
2023/09/13 19:13:21;;;;;;;1.88;1.15;;;;;;;18.22;nan;100324.78;10509877;28;20040;-63
2023/09/13 19:18:23;;;;;;;2.88;1.27;;;;;;;18.26;nan;100320.09;10508647;28;20078;-63
2023/09/13 19:23:27;;;;;;;3.53;1.30;;;;;;;18.22;nan;100326.63;10515765;28;20051;-63
2023/09/13 19:28:32;;;;;;;5.20;1.33;;;;;;;18.23;nan;100337.06;10518483;28;20567;-63
2023/09/13 19:33:34;;;;;;;3.03;1.15;;;;;;;18.36;nan;100334.22;10523733;28;20162;-63
2023/09/13 19:38:37;;;;;;;3.50;1.02;;;;;;;18.27;nan;100341.13;10517038;28;20048;-63
2023/09/13 19:43:40;;;;;;;1.60;1.00;;;;;;;18.25;nan;100350.19;10525783;28;20555;-61
2023/09/13 19:48:42;;;;;;;2.05;1.15;;;;;;;18.29;nan;100349.78;10516264;28;20045;-61
2023/09/13 19:53:45;;;;;;;1.27;0.98;;;;;;;18.42;nan;100363.66;10529763;28;20082;-61
2023/09/13 19:58:49;;;;;;;2.60;1.00;;;;;;;18.35;nan;100373.09;10516389;28;20046;-61
2023/09/13 20:03:51;;;;;;;2.17;1.25;;;;;;;18.51;nan;100372.63;10520593;28;20077;-61
2023/09/13 20:08:54;;;;;;;1.40;0.98;;;;;;;18.56;nan;100375.72;10519229;28;20051;-61
2023/09/13 20:13:58;;;;;;;1.40;0.73;;;;;;;18.58;nan;100385.19;10528542;28;20666;-61
2023/09/13 20:19:00;;;;;;;2.58;1.08;;;;;;;18.52;nan;100377.78;10517290;28;20570;-61
2023/09/13 20:24:03;;;;;;;1.48;0.80;;;;;;;18.40;nan;100383.31;10520981;28;20048;-61
2023/09/13 20:29:05;;;;;;;2.50;0.90;;;;;;;18.45;nan;100389.03;10524698;28;20119;-61
2023/09/13 20:34:08;;;;;;;1.00;0.80;;;;;;;18.47;nan;100392.41;10517976;28;20541;-61
2023/09/13 20:39:12;;;;;;;1.38;0.90;;;;;;;18.39;nan;100392.22;10518596;28;20173;-61
2023/09/13 20:44:14;;;;;;;1.52;0.70;;;;;;;18.42;nan;100403.38;10523104;28;20070;-61
2023/09/13 20:49:16;;;;;;;0.77;0.77;;;;;;;18.25;nan;100409.28;10519244;28;20066;-61
2023/09/13 20:54:20;;;;;;;1.50;0.73;;;;;;;18.28;nan;100408.19;10519486;28;20051;-61
2023/09/13 20:59:25;;;;;;;1.27;0.80;;;;;;;18.21;nan;100422.88;10516775;28;20463;-61
2023/09/13 21:04:27;;;;;;;0.98;0.73;;;;;;;18.15;nan;100418.91;10521665;28;20499;-61
2023/09/13 21:09:29;;;;;;;0.63;0.63;;;;;;;17.95;nan;100427.69;10520559;28;20119;-61
2023/09/13 21:14:31;;;;;;;2.22;1.10;;;;;;;17.64;nan;100428.50;10523593;28;20256;-61
2023/09/13 21:19:33;;;;;;;0.82;0.60;;;;;;;17.38;nan;100425.31;10514287;28;20417;-61
2023/09/13 21:24:35;;;;;;;1.90;0.98;;;;;;;17.10;nan;100433.69;10525260;28;20429;-61
2023/09/13 21:29:38;;;;;;;0.90;0.60;;;;;;;16.98;nan;100427.59;10513136;28;20602;-61
2023/09/13 21:34:41;;;;;;;1.42;1.00;;;;;;;16.87;nan;100432.84;10523020;28;20044;-61
2023/09/13 21:40:00;;;;;;;0.73;0.70;;;;;;;16.79;nan;100440.53;10525556;28;20040;-61
2023/09/13 21:45:03;;;;;;;1.15;0.88;;;;;;;16.77;nan;100434.53;10517122;28;20108;-61
2023/09/13 21:50:05;;;;;;;1.38;0.88;;;;;;;16.65;nan;100442.56;10525414;28;20403;-61
2023/09/13 21:55:08;;;;;;;1.88;1.00;;;;;;;16.61;nan;100443.78;10524019;28;20039;-61
2023/09/13 22:00:16;;;;;;;1.13;0.90;;;;;;;16.54;nan;100453.09;10513848;28;20130;-61
2023/09/13 22:05:22;;;;;;;1.45;0.90;;;;;;;16.48;nan;100449.13;10502852;28;20078;-61
2023/09/13 22:10:24;;;;;;;1.92;0.90;;;;;;;16.35;nan;100447.50;10509048;28;20044;-61
2023/09/13 22:15:27;;;;;;;0.80;0.77;;;;;;;16.12;nan;100450.06;10512442;28;20511;-61
2023/09/13 22:20:29;;;;;;;1.15;0.80;;;;;;;16.09;nan;100445.03;10509937;28;20583;-61
2023/09/13 22:25:31;;;;;;;1.55;0.85;;;;;;;16.10;nan;100451.16;10519638;28;20499;-61
2023/09/13 22:30:34;;;;;;;1.25;0.73;;;;;;;16.01;nan;100449.19;10510490;28;20036;-61
2023/09/13 22:35:37;;;;;;;2.38;1.20;;;;;;;15.95;nan;100447.84;10510271;28;20040;-61
2023/09/13 22:40:39;;;;;;;1.27;0.82;;;;;;;15.94;nan;100448.78;10510517;28;20042;-61
2023/09/13 22:45:42;;;;;;;4.13;1.63;;;;;;;15.95;nan;100462.81;10513118;28;20495;-61
2023/09/13 22:50:44;;;;;;;1.17;0.80;;;;;;;15.91;nan;100461.38;10510572;28;20054;-61
2023/09/13 22:55:52;;;;;;;0.82;0.77;;;;;;;15.94;nan;100454.06;10508100;28;20044;-61
2023/09/13 23:00:54;;;;;;;4.05;1.20;;;;;;;15.97;nan;100456.50;10511604;28;20040;-61
2023/09/13 23:05:58;;;;;;;2.30;0.95;;;;;;;15.98;nan;100460.78;10513863;28;20426;-61
2023/09/13 23:11:01;;;;;;;1.05;0.73;;;;;;;16.01;nan;100468.50;10516500;28;20036;-61
2023/09/13 23:16:04;;;;;;;2.80;1.10;;;;;;;16.00;nan;100461.53;10506643;28;20086;-61
2023/09/13 23:21:07;;;;;;;1.20;0.70;;;;;;;16.00;nan;100464.16;10506886;28;20040;-61
2023/09/13 23:26:12;;;;;;;1.98;0.90;;;;;;;16.08;nan;100461.78;10507793;28;20119;-61
2023/09/13 23:31:15;;;;;;;3.35;0.80;;;;;;;15.91;nan;100453.44;10510182;28;20530;-62
2023/09/13 23:36:17;;;;;;;1.67;0.90;;;;;;;15.92;nan;100463.88;10510429;28;20166;-61
2023/09/13 23:41:19;;;;;;;2.10;1.20;;;;;;;15.92;nan;100457.75;10506030;28;20040;-60
2023/09/13 23:46:21;;;;;;;2.95;1.17;;;;;;;15.88;nan;100461.56;10508145;28;20158;-61
2023/09/13 23:51:24;;;;;;;2.78;1.10;;;;;;;15.86;nan;100461.69;10515523;28;20070;-61
2023/09/13 23:56:26;;;;;;;2.42;1.05;;;;;;;15.77;nan;100453.63;10509365;28;20108;-61
